Time;durP1;ratioP1;P1;durP2;ratioP2;P2;SDS_P1;SDS_P2;PMS_P1;PMS_P2;Temp;Humidity;BMP_temperature;BMP_pressure;BME280_temperature;BME280_humidity;BME280_pressure;Samples;Min_cycle;Max_cycle;Signal;HPM_P1;HPM_P2
2023/10/11 00:01:13;;;;;;;;;;;;;;;15.94;100.00;101131.91;4903339;29;19934;-88
2023/10/11 00:04:03;;;;;;;;;;;;;;;15.92;100.00;101121.34;4914886;28;20397;-92
2023/10/11 00:06:54;;;;;;;;;;;;;;;15.93;100.00;101138.19;4897087;29;19931;-93
2023/10/11 00:09:40;;;;;;;;;;;;;;;15.92;100.00;101140.03;4914845;29;20366;-87
2023/10/11 00:12:26;;;;;;;;;;;;;;;15.91;100.00;101129.41;4888883;29;19930;-89
2023/10/11 00:15:12;;;;;;;;;;;;;;;15.90;100.00;101131.19;4906244;28;20025;-91
2023/10/11 00:17:57;;;;;;;;;;;;;;;15.89;100.00;101135.69;4903749;29;19931;-89
2023/10/11 00:23:32;;;;;;;;;;;;;;;15.88;100.00;101128.66;4904648;28;19931;-91
2023/10/11 00:26:18;;;;;;;;;;;;;;;15.87;100.00;101132.25;4902456;29;19950;-89
2023/10/11 00:29:04;;;;;;;;;;;;;;;15.86;100.00;101135.88;4903881;29;19938;-92
2023/10/11 00:31:53;;;;;;;;;;;;;;;15.85;100.00;101134.16;4918526;29;19931;-93
2023/10/11 00:34:38;;;;;;;;;;;;;;;15.86;100.00;101135.03;4918301;28;19938;-86
2023/10/11 00:37:25;;;;;;;;;;;;;;;15.86;100.00;101130.53;4907928;29;19981;-90
2023/10/11 00:40:14;;;;;;;;;;;;;;;15.86;100.00;101121.69;4911285;29;19986;-92
2023/10/11 00:43:00;;;;;;;;;;;;;;;15.85;100.00;101126.16;4898940;29;19941;-89
2023/10/11 00:45:46;;;;;;;;;;;;;;;15.85;100.00;101117.31;4905679;29;19970;-92
2023/10/11 00:48:32;;;;;;;;;;;;;;;15.84;100.00;101108.44;4892777;29;19938;-87
2023/10/11 00:51:26;;;;;;;;;;;;;;;15.84;100.00;101111.09;4905051;29;19933;-86
2023/10/11 00:54:13;;;;;;;;;;;;;;;15.85;100.00;101111.97;4924529;28;20510;-86
2023/10/11 00:56:58;;;;;;;;;;;;;;;15.85;100.00;101106.63;4900395;29;19939;-88
2023/10/11 00:59:44;;;;;;;;;;;;;;;15.85;100.00;101111.97;4905537;29;19931;-91
2023/10/11 01:02:31;;;;;;;;;;;;;;;15.85;100.00;101114.63;4893885;29;19930;-91
2023/10/11 01:05:18;;;;;;;;;;;;;;;15.84;100.00;101111.09;4906077;29;19926;-89
2023/10/11 01:08:03;;;;;;;;;;;;;;;15.83;100.00;101114.72;4907167;29;19993;-92
2023/10/11 01:10:50;;;;;;;;;;;;;;;15.83;100.00;101105.84;4913921;28;20386;-88
2023/10/11 01:13:40;;;;;;;;;;;;;;;15.82;100.00;101115.69;4930107;29;20025;-88
2023/10/11 01:16:28;;;;;;;;;;;;;;;15.82;100.00;101112.16;4906937;29;20418;-91
2023/10/11 01:19:16;;;;;;;;;;;;;;;15.81;100.00;101111.31;4907428;29;20019;-89
2023/10/11 01:22:03;;;;;;;;;;;;;;;15.81;100.00;101103.31;4903846;29;19961;-90
2023/10/11 01:24:50;;;;;;;;;;;;;;;15.82;100.00;101114.81;4904660;29;20298;-87
2023/10/11 01:27:37;;;;;;;;;;;;;;;15.82;100.00;101106.81;4902294;29;19952;-91
2023/10/11 01:30:26;;;;;;;;;;;;;;;15.82;100.00;101102.34;4917186;28;19930;-92
2023/10/11 01:33:12;;;;;;;;;;;;;;;15.81;100.00;101094.44;4918975;29;19958;-90
2023/10/11 01:35:58;;;;;;;;;;;;;;;15.82;100.00;101097.00;4907924;29;20322;-90
2023/10/11 01:38:47;;;;;;;;;;;;;;;15.82;100.00;101097.00;4903848;29;20021;-88
2023/10/11 01:41:32;;;;;;;;;;;;;;;15.81;100.00;101099.75;4903196;29;19926;-91
2023/10/11 01:44:18;;;;;;;;;;;;;;;15.79;100.00;101083.84;4914839;28;20433;-89
2023/10/11 01:47:05;;;;;;;;;;;;;;;15.79;100.00;101085.66;4906253;29;21866;-93
2023/10/11 01:49:52;;;;;;;;;;;;;;;15.75;100.00;101069.00;4901588;29;20302;-87
2023/10/11 01:52:38;;;;;;;;;;;;;;;15.72;100.00;101071.84;4914697;29;19943;-92
2023/10/11 01:55:24;;;;;;;;;;;;;;;15.71;100.00;101070.13;4906978;29;19935;-92
2023/10/11 01:58:12;;;;;;;;;;;;;;;15.70;100.00;101049.75;4926452;28;19997;-91
2023/10/11 02:00:58;;;;;;;;;;;;;;;15.69;100.00;101048.03;4912970;28;19977;-92
2023/10/11 02:03:45;;;;;;;;;;;;;;;15.69;100.00;101051.53;4924108;29;20662;-91
2023/10/11 02:06:34;;;;;;;;;;;;;;;15.69;100.00;101048.03;4921532;29;19935;-91
2023/10/11 02:09:25;;;;;;;;;;;;;;;15.70;100.00;101055.06;4911657;29;20422;-92
2023/10/11 02:12:11;;;;;;;;;;;;;;;15.69;100.00;101053.38;4912069;29;19938;-89
2023/10/11 02:14:57;;;;;;;;;;;;;;;15.69;100.00;101053.38;4919437;29;19935;-86
2023/10/11 02:17:47;;;;;;;;;;;;;;;15.67;100.00;101044.59;4916681;29;19989;-88
2023/10/11 02:20:32;;;;;;;;;;;;;;;15.65;100.00;101035.81;4927237;29;19974;-88
2023/10/11 02:23:18;;;;;;;;;;;;;;;15.64;100.00;101044.78;4925919;29;19930;-88
2023/10/11 02:26:04;;;;;;;;;;;;;;;15.62;100.00;101044.88;4926203;28;20030;-88
2023/10/11 02:28:51;;;;;;;;;;;;;;;15.64;100.00;101050.13;4925547;28;19930;-88
2023/10/11 02:31:38;;;;;;;;;;;;;;;15.62;100.00;101050.22;4898892;29;19931;-88
2023/10/11 02:34:24;;;;;;;;;;;;;;;15.60;100.00;101039.63;4898992;29;20789;-88
2023/10/11 02:37:12;;;;;;;;;;;;;;;15.59;100.00;101040.59;4910880;29;19940;-88
2023/10/11 02:40:05;;;;;;;;;;;;;;;15.61;100.00;101037.84;4927120;29;19930;-86
2023/10/11 02:42:55;;;;;;;;;;;;;;;15.60;100.00;101042.31;4913345;29;19941;-92
2023/10/11 02:45:41;;;;;;;;;;;;;;;15.61;100.00;101025.38;4908080;29;19986;-93
2023/10/11 02:48:27;;;;;;;;;;;;;;;15.60;100.00;101031.63;4933215;29;19930;-86
2023/10/11 02:51:16;;;;;;;;;;;;;;;15.59;100.00;101032.59;4918843;29;20282;-92
2023/10/11 02:54:05;;;;;;;;;;;;;;;15.57;100.00;101031.84;4928097;29;20473;-93
2023/10/11 02:56:52;;;;;;;;;;;;;;;15.58;100.00;101030.88;4910745;29;19973;-92
2023/10/11 02:59:42;;;;;;;;;;;;;;;15.59;100.00;101034.41;4913239;29;19938;-91
2023/10/11 03:02:30;;;;;;;;;;;;;;;15.57;100.00;101034.50;4925584;29;20378;-89
2023/10/11 03:05:15;;;;;;;;;;;;;;;15.57;100.00;101033.63;4924144;29;20453;-90
2023/10/11 03:08:13;;;;;;;;;;;;;;;15.58;100.00;101028.22;4934052;28;20457;-95
2023/10/11 03:11:04;;;;;;;;;;;;;;;15.58;100.00;101038.03;4922763;29;19930;-94
2023/10/11 03:13:52;;;;;;;;;;;;;;;15.58;100.00;101043.38;4910816;28;19935;-89
2023/10/11 03:16:42;;;;;;;;;;;;;;;15.59;100.00;101039.75;4910388;29;20342;-92
2023/10/11 03:19:30;;;;;;;;;;;;;;;15.58;100.00;101038.88;4908813;29;19926;-92
2023/10/11 03:22:19;;;;;;;;;;;;;;;15.58;100.00;101035.38;4919160;29;19934;-92
2023/10/11 03:25:12;;;;;;;;;;;;;;;15.57;100.00;101034.50;4905852;29;19961;-92
2023/10/11 03:27:58;;;;;;;;;;;;;;;15.58;100.00;101035.38;4931919;28;19938;-92
2023/10/11 03:30:43;;;;;;;;;;;;;;;15.56;100.00;101030.13;4921800;29;19934;-93
2023/10/11 03:33:29;;;;;;;;;;;;;;;15.56;100.00;101016.78;4934880;28;20909;-91
2023/10/11 03:36:20;;;;;;;;;;;;;;;15.58;100.00;101030.03;4904998;29;19962;-90
2023/10/11 03:39:09;;;;;;;;;;;;;;;15.58;100.00;101024.69;4909466;29;20009;-92
2023/10/11 03:42:07;;;;;;;;;;;;;;;15.58;100.00;101014.88;4919029;28;19962;-92
2023/10/11 03:44:53;;;;;;;;;;;;;;;15.57;100.00;101015.81;4909752;29;21872;-89
2023/10/11 03:47:38;;;;;;;;;;;;;;;15.56;100.00;101006.13;4924851;28;19935;-93
2023/10/11 03:50:34;;;;;;;;;;;;;;;15.56;100.00;100990.09;4919112;28;19934;-88
2023/10/11 03:53:19;;;;;;;;;;;;;;;15.57;100.00;100977.59;4913576;29;20370;-88
2023/10/11 03:56:08;;;;;;;;;;;;;;;15.56;100.00;100978.56;4918794;29;19929;-93
2023/10/11 03:58:56;;;;;;;;;;;;;;;15.55;100.00;100983.06;4915685;29;19927;-88
2023/10/11 04:01:43;;;;;;;;;;;;;;;15.56;100.00;100984.78;4910061;28;19930;-92
2023/10/11 04:04:30;;;;;;;;;;;;;;;15.55;100.00;100992.88;4899632;29;19967;-90
2023/10/11 04:07:16;;;;;;;;;;;;;;;15.57;100.00;100988.28;4889128;29;19938;-91
2023/10/11 04:10:09;;;;;;;;;;;;;;;15.55;100.00;100999.06;4904089;29;19933;-94
2023/10/11 04:12:55;;;;;;;;;;;;;;;15.56;100.00;101002.56;4900572;29;20374;-92
2023/10/11 04:15:41;;;;;;;;;;;;;;;15.56;100.00;101014.13;4912948;29;20673;-91
2023/10/11 04:18:36;;;;;;;;;;;;;;;15.56;100.00;101032.78;4917873;29;19931;-90
2023/10/11 04:24:49;;;;;;;;;;;;;;;15.54;100.00;101018.72;4901747;29;19937;-92
2023/10/11 04:30:26;;;;;;;;;;;;;;;15.51;100.00;101010.88;4914168;29;19945;-90
2023/10/11 04:33:13;;;;;;;;;;;;;;;15.50;100.00;101001.16;4912859;29;19931;-90
2023/10/11 04:36:02;;;;;;;;;;;;;;;15.50;100.00;101003.84;4903203;29;19931;-92
2023/10/11 04:38:48;;;;;;;;;;;;;;;15.51;100.00;101008.22;4906860;29;20025;-88
2023/10/11 04:41:37;;;;;;;;;;;;;;;15.51;100.00;101016.22;4917117;29;20040;-93
2023/10/11 04:44:23;;;;;;;;;;;;;;;15.51;100.00;101008.22;4890720;29;19935;-90
2023/10/11 04:47:09;;;;;;;;;;;;;;;15.51;100.00;101010.88;4900291;29;19935;-92
2023/10/11 04:49:55;;;;;;;;;;;;;;;15.53;100.00;101005.47;4897948;29;19931;-90
2023/10/11 04:52:47;;;;;;;;;;;;;;;15.54;100.00;101008.03;4909044;29;19927;-87
2023/10/11 04:55:35;;;;;;;;;;;;;;;15.53;100.00;101010.78;4894052;29;20409;-91
2023/10/11 05:01:39;;;;;;;;;;;;;;;15.50;100.00;101017.19;4906629;29;19934;-90
2023/10/11 05:04:30;;;;;;;;;;;;;;;15.48;100.00;100993.25;4918355;29;20592;-92
2023/10/11 05:07:19;;;;;;;;;;;;;;;15.46;100.00;100999.63;4924781;29;19922;-91
2023/10/11 05:10:29;;;;;;;;;;;;;;;15.42;100.00;101022.97;4907076;29;19941;-87
2023/10/11 05:13:13;;;;;;;;;;;;;;;15.41;100.00;101029.28;4916137;28;19957;-89
2023/10/11 05:16:06;;;;;;;;;;;;;;;15.38;100.00;101017.94;4925389;28;19942;-90
2023/10/11 05:18:51;;;;;;;;;;;;;;;15.38;100.00;100999.28;4902224;29;19930;-91
2023/10/11 05:21:40;;;;;;;;;;;;;;;15.37;100.00;101002.91;4901081;29;20506;-91
2023/10/11 05:25:12;;;;;;;;;;;;;;;15.37;100.00;101010.91;4897080;29;19927;-89
2023/10/11 05:27:56;;;;;;;;;;;;;;;15.35;100.00;101024.31;4918222;29;19930;-87
2023/10/11 05:30:44;;;;;;;;;;;;;;;15.34;100.00;101004.81;4927272;29;19931;-88
2023/10/11 05:33:59;;;;;;;;;;;;;;;15.36;100.00;100996.69;4907341;29;20547;-87
2023/10/11 05:37:01;;;;;;;;;;;;;;;15.38;100.00;101001.94;4919823;29;20433;-89
2023/10/11 05:52:07;;;;;;;;;;;;;;;15.36;100.00;100982.53;4918177;28;20066;-90
2023/10/11 05:54:54;;;;;;;;;;;;;;;15.39;100.00;100979.66;4938489;28;20369;-90
2023/10/11 05:57:42;;;;;;;;;;;;;;;15.41;100.00;100985.75;4916943;29;20013;-92
2023/10/11 06:00:27;;;;;;;;;;;;;;;15.43;100.00;100991.84;4925170;29;20070;-90
2023/10/11 06:03:14;;;;;;;;;;;;;;;15.48;100.00;100982.59;4904206;29;19923;-88
2023/10/11 06:06:10;;;;;;;;;;;;;;;15.52;100.00;100985.91;4920857;29;20029;-93
2023/10/11 06:08:59;;;;;;;;;;;;;;;15.57;100.00;100986.47;4936008;29;19926;-91
2023/10/11 06:11:48;;;;;;;;;;;;;;;15.63;100.00;101000.38;4909095;28;19926;-86
2023/10/11 06:14:36;;;;;;;;;;;;;;;15.67;100.00;101012.56;4916977;29;20214;-95
2023/10/11 06:17:33;;;;;;;;;;;;;;;15.71;100.00;101003.41;4912962;28;20021;-95
2023/10/11 06:20:27;;;;;;;;;;;;;;;15.74;100.00;101005.88;4914754;29;20403;-91
2023/10/11 06:23:13;;;;;;;;;;;;;;;15.78;100.00;101010.06;4933731;28;19935;-86
2023/10/11 06:25:59;;;;;;;;;;;;;;;15.80;100.00;101008.13;4906827;29;19934;-93
2023/10/11 06:28:45;;;;;;;;;;;;;;;15.83;100.00;101007.09;4905523;29;19931;-91
2023/10/11 06:31:34;;;;;;;;;;;;;;;15.87;100.00;100995.25;4932631;29;19961;-92
2023/10/11 06:34:26;;;;;;;;;;;;;;;15.92;100.00;101000.31;4919620;29;19934;-92
2023/10/11 06:37:16;;;;;;;;;;;;;;;15.93;100.00;100999.38;4915566;29;21515;-94
2023/10/11 06:42:53;;;;;;;;;;;;;;;16.00;100.00;101000.66;4937060;28;19941;-93
2023/10/11 06:45:41;;;;;;;;;;;;;;;16.01;100.00;100995.25;4944022;28;19927;-92
2023/10/11 06:48:29;;;;;;;;;;;;;;;16.02;100.00;101002.28;4915840;29;19992;-90
2023/10/11 06:51:15;;;;;;;;;;;;;;;16.04;100.00;100995.97;4912352;29;19926;-90
2023/10/11 06:54:00;;;;;;;;;;;;;;;16.06;100.00;101002.94;4933456;29;20306;-87
2023/10/11 06:56:50;;;;;;;;;;;;;;;16.09;100.00;100997.41;4931812;29;19927;-93
2023/10/11 06:59:39;;;;;;;;;;;;;;;16.13;100.00;100992.72;4909802;29;19923;-93
2023/10/11 07:02:33;;;;;;;;;;;;;;;16.15;100.00;100996.13;4922547;28;19949;-90
2023/10/11 07:05:20;;;;;;;;;;;;;;;16.20;100.00;100995.81;4935831;28;20001;-87
2023/10/11 07:08:05;;;;;;;;;;;;;;;16.22;100.00;100992.09;4915256;29;20101;-92
2023/10/11 07:11:02;;;;;;;;;;;;;;;16.24;100.00;100978.66;4903757;29;19926;-88
2023/10/11 07:14:00;;;;;;;;;;;;;;;16.25;100.00;100969.66;4918272;29;19937;-94
2023/10/11 07:16:47;;;;;;;;;;;;;;;16.26;100.00;100963.34;4909568;29;19952;-88
2023/10/11 07:19:36;;;;;;;;;;;;;;;16.28;100.00;100972.97;4909574;29;19927;-88
2023/10/11 07:22:26;;;;;;;;;;;;;;;16.32;100.00;100970.09;4912932;29;19934;-94
2023/10/11 07:28:35;;;;;;;;;;;;;;;16.36;100.00;100972.47;4918220;29;20016;-85
2023/10/11 07:31:35;;;;;;;;;;;;;;;16.37;100.00;100976.84;4928569;28;20342;-87
2023/10/11 07:34:21;;;;;;;;;;;;;;;16.39;100.00;100977.59;4917018;29;19927;-86
2023/10/11 07:37:12;;;;;;;;;;;;;;;16.41;100.00;100970.31;4936328;28;19981;-90
2023/10/11 07:40:00;;;;;;;;;;;;;;;16.45;100.00;100973.63;4932176;28;19926;-95
2023/10/11 07:42:46;;;;;;;;;;;;;;;16.49;100.00;100982.31;4919210;29;19931;-86
2023/10/11 07:45:36;;;;;;;;;;;;;;;16.50;100.00;100981.38;4915066;28;19930;-86
2023/10/11 07:48:23;;;;;;;;;;;;;;;16.52;100.00;100992.78;4902384;29;20033;-91
2023/10/11 07:51:12;;;;;;;;;;;;;;;16.52;100.00;100977.59;4908301;29;19949;-93
2023/10/11 07:54:19;;;;;;;;;;;;;;;16.53;100.00;100981.13;4922797;28;19930;-93
2023/10/11 07:57:05;;;;;;;;;;;;;;;16.58;100.00;100988.84;4917266;29;20548;-91
2023/10/11 07:59:51;;;;;;;;;;;;;;;16.58;100.00;100979.00;4923260;29;20390;-93
2023/10/11 08:02:41;;;;;;;;;;;;;;;16.58;100.00;100976.34;4934908;28;20571;-94
2023/10/11 08:05:29;;;;;;;;;;;;;;;16.58;100.00;100991.50;4915433;29;20404;-93
2023/10/11 08:08:15;;;;;;;;;;;;;;;16.56;100.00;101005.84;4932083;29;19930;-79
2023/10/11 08:11:06;;;;;;;;;;;;;;;16.56;100.00;101016.53;4911788;28;19993;-84
2023/10/11 08:13:59;;;;;;;;;;;;;;;16.56;100.00;101024.53;4912596;29;19936;-87
2023/10/11 08:16:47;;;;;;;;;;;;;;;16.55;100.00;101019.28;4928692;28;19998;-89
2023/10/11 08:19:35;;;;;;;;;;;;;;;16.52;100.00;101015.00;4906725;28;19997;-88
2023/10/11 08:22:22;;;;;;;;;;;;;;;16.49;100.00;101033.94;4929041;28;19934;-85
2023/10/11 08:25:12;;;;;;;;;;;;;;;16.48;100.00;101037.56;4913625;29;20605;-87
2023/10/11 08:28:28;;;;;;;;;;;;;;;16.47;100.00;101032.31;4911117;29;19935;-89
2023/10/11 08:31:04;;;;;;;;;;;;;;;16.45;100.00;101034.25;4915142;29;20428;-89
2023/10/11 08:33:49;;;;;;;;;;;;;;;16.45;100.00;101028.91;4923574;28;19990;-90
2023/10/11 08:36:43;;;;;;;;;;;;;;;16.43;100.00;101031.69;4905512;29;20036;-89
2023/10/11 08:42:41;;;;;;;;;;;;;;;16.47;100.00;101038.53;4908221;29;19937;-93
2023/10/11 08:45:33;;;;;;;;;;;;;;;16.50;100.00;101032.97;4897896;29;19930;-91
2023/10/11 08:48:24;;;;;;;;;;;;;;;16.55;100.00;101035.31;4903025;29;21101;-87
2023/10/11 08:51:12;;;;;;;;;;;;;;;16.60;100.00;101043.91;4901695;28;20267;-94
2023/10/11 08:54:12;;;;;;;;;;;;;;;16.68;100.00;101051.41;4919132;29;20401;-90
2023/10/11 08:56:58;;;;;;;;;;;;;;;16.74;100.00;101042.09;4900001;28;19938;-91
2023/10/11 08:59:49;;;;;;;;;;;;;;;16.79;100.00;101045.31;4917796;29;19926;-90
2023/10/11 09:02:35;;;;;;;;;;;;;;;16.81;100.00;101044.25;4910284;28;19938;-90
2023/10/11 09:05:32;;;;;;;;;;;;;;;16.86;100.00;101049.28;4895194;29;19942;-84
2023/10/11 09:08:21;;;;;;;;;;;;;;;16.91;100.00;101056.97;4925376;29;21455;-88
2023/10/11 09:11:11;;;;;;;;;;;;;;;16.97;100.00;101062.78;4924655;28;20024;-86
2023/10/11 09:14:13;;;;;;;;;;;;;;;17.03;100.00;101064.19;4898989;29;20054;-89
2023/10/11 09:17:02;;;;;;;;;;;;;;;17.12;100.00;101052.00;4908731;29;19926;-83
2023/10/11 09:19:58;;;;;;;;;;;;;;;17.17;100.00;101051.66;4902055;28;19930;-87
2023/10/11 09:22:47;;;;;;;;;;;;;;;17.24;100.00;101064.53;4894077;29;19926;-88
2023/10/11 09:25:41;;;;;;;;;;;;;;;17.31;100.00;101069.41;4906665;29;20367;-87
2023/10/11 09:28:27;;;;;;;;;;;;;;;17.39;100.00;101072.44;4910281;29;19942;-88
2023/10/11 09:31:20;;;;;;;;;;;;;;;17.45;100.00;101072.00;4910232;28;19927;-89
2023/10/11 09:34:07;;;;;;;;;;;;;;;17.51;100.00;101087.63;4908858;28;20008;-88
2023/10/11 09:36:56;;;;;;;;;;;;;;;17.54;100.00;101085.69;4908718;28;19944;-88
2023/10/11 09:39:42;;;;;;;;;;;;;;;17.53;100.00;101084.81;4914035;28;19965;-86
2023/10/11 09:42:29;;;;;;;;;;;;;;;17.54;100.00;101089.19;4906394;28;19926;-84
2023/10/11 09:45:17;;;;;;;;;;;;;;;17.52;100.00;101075.06;4910772;29;19981;-87
2023/10/11 09:48:05;;;;;;;;;;;;;;;17.53;100.00;101066.06;4908750;28;19931;-87
2023/10/11 09:50:57;;;;;;;;;;;;;;;17.55;100.00;101076.66;4906623;28;19956;-87
2023/10/11 09:53:49;;;;;;;;;;;;;;;17.54;100.00;101081.16;4895427;28;19977;-87
2023/10/11 09:56:48;;;;;;;;;;;;;;;17.46;100.00;101088.88;4905880;29;19969;-88
2023/10/11 09:59:39;;;;;;;;;;;;;;;17.34;100.00;101085.25;4905798;29;19985;-88
2023/10/11 10:02:30;;;;;;;;;;;;;;;17.25;100.00;101086.75;4894108;29;19937;-85
2023/10/11 10:05:17;;;;;;;;;;;;;;;17.19;100.00;101080.03;4899306;29;19973;-86
2023/10/11 10:08:28;;;;;;;;;;;;;;;17.18;100.00;101062.28;4918371;28;19958;-88
2023/10/11 10:11:14;;;;;;;;;;;;;;;17.19;100.00;101065.78;4919563;29;19969;-86
2023/10/11 10:14:03;;;;;;;;;;;;;;;17.21;100.00;101062.03;4902755;29;19966;-87
2023/10/11 10:17:16;;;;;;;;;;;;;;;17.28;100.00;101059.81;4893679;28;19931;-85
2023/10/11 10:20:20;;;;;;;;;;;;;;;17.42;100.00;101056.13;4926079;28;19930;-88
2023/10/11 10:23:15;;;;;;;;;;;;;;;17.55;100.00;101037.41;4924659;28;20555;-88
2023/10/11 10:26:04;;;;;;;;;;;;;;;17.67;100.00;101041.00;4921639;28;19985;-85
2023/10/11 10:28:53;;;;;;;;;;;;;;;17.80;100.00;101050.81;4924315;28;19989;-89
2023/10/11 10:31:59;;;;;;;;;;;;;;;17.89;100.00;101048.31;4907400;28;19942;-84
2023/10/11 10:34:45;;;;;;;;;;;;;;;18.00;100.00;101039.50;4905074;28;20222;-85
2023/10/11 10:37:45;;;;;;;;;;;;;;;18.14;100.00;101048.38;4908631;29;19959;-84
2023/10/11 10:40:37;;;;;;;;;;;;;;;18.22;100.00;101051.31;4924013;28;20635;-82
2023/10/11 10:43:23;;;;;;;;;;;;;;;18.25;100.00;101056.44;4905615;28;20040;-85
2023/10/11 10:46:09;;;;;;;;;;;;;;;18.30;100.00;101045.41;4901954;28;19979;-89
2023/10/11 10:48:56;;;;;;;;;;;;;;;18.35;100.00;101050.41;4905349;29;20078;-87
2023/10/11 10:51:47;;;;;;;;;;;;;;;18.35;100.00;101061.97;4897099;28;20034;-90
2023/10/11 10:54:33;;;;;;;;;;;;;;;18.39;100.00;101051.84;4910011;29;19934;-90
2023/10/11 10:57:23;;;;;;;;;;;;;;;18.39;100.00;101052.72;4896130;28;19940;-86
2023/10/11 11:00:22;;;;;;;;;;;;;;;18.46;100.00;101039.69;4909689;28;19927;-81
2023/10/11 11:03:21;;;;;;;;;;;;;;;18.52;100.00;101039.25;4921697;29;19969;-83
2023/10/11 11:06:11;;;;;;;;;;;;;;;18.61;100.00;101047.56;4899759;29;19934;-84
2023/10/11 11:08:59;;;;;;;;;;;;;;;18.68;100.00;101046.97;4896312;29;19930;-84
2023/10/11 11:11:46;;;;;;;;;;;;;;;18.69;100.00;101055.88;4922116;29;19935;-84
2023/10/11 11:14:32;;;;;;;;;;;;;;;18.67;100.00;101055.97;4906823;29;20371;-86
2023/10/11 11:17:19;;;;;;;;;;;;;;;18.65;100.00;101052.56;4911219;29;19930;-84
2023/10/11 11:23:24;;;;;;;;;;;;;;;18.62;100.00;101060.00;4907947;29;19927;-86
2023/10/11 11:26:15;;;;;;;;;;;;;;;18.54;100.00;101058.75;4924724;28;19936;-83
2023/10/11 11:29:08;;;;;;;;;;;;;;;18.48;100.00;101042.28;4905062;28;19931;-87
2023/10/11 11:31:55;;;;;;;;;;;;;;;18.43;100.00;101051.50;4907713;28;19942;-88
2023/10/11 11:35:02;;;;;;;;;;;;;;;18.41;100.00;101039.22;4923715;28;19935;-82
2023/10/11 11:38:02;;;;;;;;;;;;;;;18.43;100.00;101027.38;4920758;28;19962;-85
2023/10/11 11:40:51;;;;;;;;;;;;;;;18.49;100.00;101027.91;4908163;29;19926;-86
2023/10/11 11:43:38;;;;;;;;;;;;;;;18.54;100.00;101023.91;4908135;28;19941;-85
2023/10/11 11:46:29;;;;;;;;;;;;;;;18.66;100.00;101029.28;4905300;29;20287;-90
2023/10/11 11:49:21;;;;;;;;;;;;;;;18.73;100.00;101038.56;4910675;29;19938;-86
2023/10/11 11:52:07;;;;;;;;;;;;;;;18.79;100.00;101027.34;4925079;28;20013;-86
2023/10/11 11:54:54;;;;;;;;;;;;;;;18.84;100.00;101041.28;4921728;28;20187;-90
2023/10/11 11:57:41;;;;;;;;;;;;;;;18.85;100.00;101028.72;4921222;28;19973;-87
2023/10/11 12:03:12;;;;;;;;;;;;;;;18.92;100.00;101040.69;4905554;29;21196;-84
2023/10/11 12:05:58;;;;;;;;;;;;;;;18.95;100.00;101039.59;4921156;29;19927;-85
2023/10/11 12:08:44;;;;;;;;;;;;;;;18.97;100.00;101034.97;4892789;29;19931;-83
2023/10/11 12:11:30;;;;;;;;;;;;;;;18.98;100.00;101036.66;4918588;28;19934;-87
2023/10/11 12:14:16;;;;;;;;;;;;;;;19.00;100.00;101037.38;4920263;28;19993;-84
2023/10/11 12:17:08;;;;;;;;;;;;;;;18.95;100.00;101039.59;4907465;29;19926;-86
2023/10/11 12:19:54;;;;;;;;;;;;;;;18.87;100.00;101043.69;4920438;28;19935;-86
2023/10/11 12:22:43;;;;;;;;;;;;;;;18.82;100.00;101037.88;4894053;28;19935;-86
2023/10/11 12:25:33;;;;;;;;;;;;;;;18.73;100.00;101042.09;4922099;29;19931;-86
2023/10/11 12:28:22;;;;;;;;;;;;;;;18.69;100.00;101034.44;4897442;28;20386;-84
2023/10/11 12:31:07;;;;;;;;;;;;;;;18.67;100.00;101030.97;4919348;28;19956;-89
2023/10/11 12:33:53;;;;;;;;;;;;;;;18.66;100.00;101018.56;4904112;28;19931;-88
2023/10/11 12:36:41;;;;;;;;;;;;;;;18.65;100.00;101028.44;4908078;28;20338;-87
2023/10/11 12:39:33;;;;;;;;;;;;;;;18.69;100.00;101024.53;4889868;29;19933;-86
2023/10/11 12:42:18;;;;;;;;;;;;;;;18.70;100.00;101030.75;4905566;29;19957;-84
2023/10/11 12:45:07;;;;;;;;;;;;;;;18.70;100.00;101020.03;4914625;29;19970;-89
2023/10/11 12:47:53;;;;;;;;;;;;;;;18.69;100.00;101007.63;4922759;28;19937;-90
2023/10/11 12:50:39;;;;;;;;;;;;;;;18.69;100.00;101012.97;4903778;29;19930;-88
2023/10/11 12:53:28;;;;;;;;;;;;;;;18.68;100.00;101017.47;4922658;29;20429;-87
2023/10/11 12:56:14;;;;;;;;;;;;;;;18.68;100.00;101011.28;4920218;29;20147;-87
2023/10/11 12:59:00;;;;;;;;;;;;;;;18.63;100.00;101013.44;4903877;28;20673;-86
2023/10/11 13:01:57;;;;;;;;;;;;;;;18.57;100.00;101010.25;4904842;29;19930;-83
2023/10/11 13:04:47;;;;;;;;;;;;;;;18.55;100.00;101017.56;4919163;28;19937;-87
2023/10/11 13:07:32;;;;;;;;;;;;;;;18.56;100.00;101013.03;4894075;28;22110;-85
2023/10/11 13:10:18;;;;;;;;;;;;;;;18.59;100.00;101018.19;4921026;28;19930;-87
2023/10/11 13:13:09;;;;;;;;;;;;;;;18.63;100.00;101014.28;4907429;29;19923;-87
2023/10/11 13:16:00;;;;;;;;;;;;;;;18.63;100.00;101014.28;4898427;28;19934;-85
2023/10/11 13:18:46;;;;;;;;;;;;;;;18.65;100.00;101017.72;4905900;29;19930;-85
2023/10/11 13:21:33;;;;;;;;;;;;;;;18.71;100.00;101014.56;4909699;29;20440;-87
2023/10/11 13:24:22;;;;;;;;;;;;;;;18.80;100.00;101015.66;4922580;29;19962;-87
2023/10/11 13:27:09;;;;;;;;;;;;;;;18.87;100.00;101008.84;4905563;29;20754;-88
2023/10/11 13:30:01;;;;;;;;;;;;;;;18.94;100.00;101011.91;4907309;29;22219;-86
2023/10/11 13:32:47;;;;;;;;;;;;;;;18.94;100.00;101016.41;4905605;29;19933;-84
2023/10/11 13:35:35;;;;;;;;;;;;;;;18.93;100.00;101007.53;4904130;28;20039;-82
2023/10/11 13:38:21;;;;;;;;;;;;;;;18.92;100.00;100997.78;4924490;28;19930;-89
2023/10/11 13:41:11;;;;;;;;;;;;;;;18.93;100.00;101004.84;4919995;29;20394;-88
2023/10/11 13:43:57;;;;;;;;;;;;;;;18.94;100.00;101000.31;4906963;29;19996;-88
2023/10/11 13:46:43;;;;;;;;;;;;;;;18.95;100.00;101007.41;4921224;28;20361;-87
2023/10/11 13:49:32;;;;;;;;;;;;;;;18.93;100.00;101014.69;4919308;29;20294;-88
2023/10/11 13:52:20;;;;;;;;;;;;;;;18.90;100.00;101006.91;4911482;29;20029;-89
2023/10/11 13:55:11;;;;;;;;;;;;;;;18.87;100.00;101000.78;4918589;29;19931;-87
2023/10/11 13:57:57;;;;;;;;;;;;;;;18.88;100.00;100990.94;4906196;29;19931;-89
2023/10/11 14:06:22;;;;;;;;;;;;;;;18.86;100.00;100987.53;4919287;29;19930;-88
2023/10/11 14:09:16;;;;;;;;;;;;;;;18.89;100.00;100975.69;4907244;28;19926;-90
2023/10/11 14:12:11;;;;;;;;;;;;;;;18.88;100.00;100969.47;4899919;28;19934;-87
2023/10/11 14:14:57;;;;;;;;;;;;;;;18.87;100.00;100978.50;4895348;28;19930;-89
2023/10/11 14:17:44;;;;;;;;;;;;;;;18.89;100.00;100971.19;4894499;29;20037;-90
2023/10/11 14:20:32;;;;;;;;;;;;;;;18.90;100.00;100956.78;4919942;29;19930;-90
2023/10/11 14:23:19;;;;;;;;;;;;;;;18.89;100.00;100968.50;4921695;28;19931;-90
2023/10/11 14:26:13;;;;;;;;;;;;;;;18.84;100.00;100974.22;4897802;29;20881;-88
2023/10/11 14:28:59;;;;;;;;;;;;;;;18.82;100.00;100964.59;4906660;29;19938;-87
2023/10/11 14:31:45;;;;;;;;;;;;;;;18.79;100.00;100962.16;4907261;28;20025;-89
2023/10/11 14:34:30;;;;;;;;;;;;;;;18.76;100.00;100960.56;4910134;29;19934;-92
2023/10/11 14:37:19;;;;;;;;;;;;;;;18.72;100.00;100964.47;4900990;29;19941;-90
2023/10/11 14:40:14;;;;;;;;;;;;;;;18.64;100.00;100970.44;4923338;28;19935;-87
2023/10/11 14:42:59;;;;;;;;;;;;;;;18.58;100.00;100963.72;4925496;28;19940;-94
2023/10/11 14:45:47;;;;;;;;;;;;;;;18.53;100.00;100955.16;4901806;29;19934;-93
2023/10/11 14:48:34;;;;;;;;;;;;;;;18.46;100.00;100959.28;4909156;29;19930;-87
2023/10/11 14:51:20;;;;;;;;;;;;;;;18.39;100.00;100958.06;4916148;29;19926;-93
2023/10/11 14:54:05;;;;;;;;;;;;;;;18.32;100.00;100953.16;4921460;29;19927;-94
2023/10/11 14:56:51;;;;;;;;;;;;;;;18.25;100.00;100951.09;4930470;29;19934;-94
2023/10/11 14:59:37;;;;;;;;;;;;;;;18.14;100.00;100949.25;4927949;29;19930;-95
2023/10/11 15:02:22;;;;;;;;;;;;;;;18.04;100.00;100954.41;4925438;28;20076;-91
2023/10/11 15:05:08;;;;;;;;;;;;;;;17.95;100.00;100947.91;4903449;29;19939;-89